createdAt,value
2019-04-23T00:00:48.480Z,2.80
2019-04-23T00:01:49.281Z,3.50
2019-04-23T00:02:55.004Z,3.20
2019-04-23T00:03:46.937Z,3.40
2019-04-23T00:04:45.590Z,3.90
2019-04-23T00:05:48.545Z,2.50
2019-04-23T00:07:03.495Z,2.50
2019-04-23T00:07:53.420Z,2.60
2019-04-23T00:08:50.240Z,4.30
2019-04-23T00:09:46.710Z,2.60
2019-04-23T00:10:43.127Z,3.30
2019-04-23T00:11:46.148Z,2.70
2019-04-23T00:15:02.924Z,2.30
2019-04-23T00:15:53.166Z,3.60
2019-04-23T00:16:44.076Z,3.40
2019-04-23T00:19:47.160Z,5.40
2019-04-23T00:20:52.868Z,4.10
2019-04-23T00:21:50.307Z,3.70
2019-04-23T00:22:51.748Z,2.90
2019-04-23T00:23:52.761Z,3.00
2019-04-23T00:25:19.179Z,2.80
2019-04-23T00:25:56.130Z,3.60
2019-04-23T00:26:41.890Z,4.70
2019-04-23T00:28:57.159Z,4.10
2019-04-23T00:29:53.363Z,3.90
2019-04-23T00:30:48.108Z,3.80
2019-04-23T00:31:44.370Z,3.80
2019-04-23T00:32:46.828Z,4.60
2019-04-23T00:33:44.873Z,4.90
2019-04-23T00:34:47.989Z,3.00
2019-04-23T00:35:44.064Z,2.30
2019-04-23T00:36:44.291Z,4.30
2019-04-23T00:37:41.791Z,2.50
2019-04-23T00:38:45.501Z,2.90
2019-04-23T00:39:47.057Z,3.30
2019-04-23T00:40:46.795Z,4.50
2019-04-23T00:41:46.837Z,6.20
2019-04-23T00:43:50.477Z,2.80
2019-04-23T00:44:45.945Z,2.90
2019-04-23T00:45:46.472Z,5.00
2019-04-23T00:46:50.643Z,4.40
2019-04-23T00:47:45.022Z,3.20
2019-04-23T00:48:55.234Z,3.20
2019-04-23T00:49:50.894Z,3.50
2019-04-23T00:50:49.212Z,3.80
2019-04-23T00:51:42.618Z,2.70
2019-04-23T00:52:48.721Z,2.80
2019-04-23T00:53:43.830Z,2.80
2019-04-23T00:54:49.328Z,5.00
2019-04-23T00:55:47.621Z,3.10
2019-04-23T00:56:47.640Z,5.20
2019-04-23T00:57:40.584Z,5.40
2019-04-23T00:59:59.586Z,3.70
2019-04-23T01:00:47.458Z,3.30
2019-04-23T01:01:49.661Z,3.10
2019-04-23T01:02:45.758Z,3.20
2019-04-23T01:03:47.284Z,3.60
2019-04-23T01:04:49.682Z,2.80
2019-04-23T01:05:42.253Z,4.60
2019-04-23T01:06:47.659Z,3.40
2019-04-23T01:07:45.690Z,3.20
2019-04-23T01:08:44.149Z,4.20
2019-04-23T01:09:48.838Z,3.50
2019-04-23T01:10:45.862Z,4.50
2019-04-23T01:11:44.854Z,4.10
2019-04-23T01:12:54.326Z,3.60
2019-04-23T01:14:48.725Z,3.60
2019-04-23T01:15:49.453Z,4.40
2019-04-23T01:17:02.648Z,3.50
2019-04-23T01:17:53.369Z,4.80
2019-04-23T01:19:43.285Z,3.90
2019-04-23T01:20:54.012Z,5.20
2019-04-23T01:21:24.390Z,3.40
2019-04-23T01:22:23.190Z,4.10
2019-04-23T01:23:28.598Z,4.80
2019-04-23T01:24:27.818Z,3.00
2019-04-23T01:25:34.355Z,3.50
2019-04-23T01:26:42.161Z,2.90
2019-04-23T01:28:07.723Z,2.90
2019-04-23T01:28:53.024Z,3.80
2019-04-23T01:29:56.212Z,4.50
2019-04-23T01:32:48.401Z,4.50
2019-04-23T01:34:11.129Z,6.10
2019-04-23T01:34:56.343Z,3.50
2019-04-23T01:36:07.896Z,2.80
2019-04-23T01:36:48.662Z,4.60
2019-04-23T01:37:46.715Z,3.90
2019-04-23T01:39:53.133Z,5.00
2019-04-23T01:40:45.896Z,6.30
2019-04-23T01:43:49.226Z,4.50
2019-04-23T01:44:50.859Z,5.70
2019-04-23T01:45:47.957Z,5.00
2019-04-23T01:46:49.259Z,3.60
2019-04-23T01:47:50.145Z,4.30
2019-04-23T01:48:56.778Z,5.00
2019-04-23T01:49:53.686Z,4.50
2019-04-23T01:51:54.542Z,4.90
2019-04-23T01:52:52.693Z,3.40
2019-04-23T01:54:52.212Z,5.60
2019-04-23T01:55:51.174Z,4.20
2019-04-23T01:56:47.397Z,4.30
2019-04-23T01:57:57.798Z,3.60
2019-04-23T01:58:51.858Z,4.40
2019-04-23T01:59:55.210Z,5.20
2019-04-23T02:00:47.717Z,4.20
2019-04-23T02:01:51.883Z,4.70
2019-04-23T02:02:55.932Z,4.30
2019-04-23T02:04:59.190Z,6.20
2019-04-23T02:05:51.310Z,4.60
2019-04-23T02:06:55.991Z,5.70
2019-04-23T02:07:50.435Z,3.90
2019-04-23T02:08:56.882Z,5.00
2019-04-23T02:09:58.024Z,6.60
2019-04-23T02:10:58.775Z,3.90
2019-04-23T02:11:53.587Z,5.30
2019-04-23T02:12:56.944Z,3.90
2019-04-23T02:13:53.286Z,4.50
2019-04-23T02:14:49.953Z,6.00
2019-04-23T02:15:47.742Z,5.20
2019-04-23T02:16:54.357Z,5.30
2019-04-23T02:17:53.550Z,4.00
2019-04-23T02:18:52.782Z,4.70
2019-04-23T02:19:51.714Z,4.20
2019-04-23T02:20:47.795Z,4.00
2019-04-23T02:21:56.432Z,3.90
2019-04-23T02:22:58.727Z,5.70
2019-04-23T02:23:47.984Z,5.00
2019-04-23T02:24:59.376Z,4.30
2019-04-23T02:27:08.010Z,4.90
2019-04-23T02:27:54.397Z,4.70
2019-04-23T02:28:53.466Z,5.00
2019-04-23T02:33:12.546Z,5.60
2019-04-23T02:36:55.157Z,6.10
2019-04-23T02:38:00.716Z,4.00
2019-04-23T02:39:57.329Z,4.40
2019-04-23T02:41:13.085Z,4.00
2019-04-23T02:43:59.082Z,5.10
2019-04-23T02:44:55.862Z,4.70
2019-04-23T02:47:03.435Z,6.80
2019-04-23T02:48:08.557Z,4.30
2019-04-23T02:48:56.622Z,4.40
2019-04-23T02:53:02.473Z,4.90
2019-04-23T02:56:51.228Z,4.00
2019-04-23T02:58:00.815Z,4.70
2019-04-23T03:02:12.034Z,4.40
2019-04-23T03:03:59.794Z,6.20
2019-04-23T03:05:57.211Z,6.00
2019-04-23T03:07:54.023Z,4.30
2019-04-23T03:11:01.312Z,5.20
2019-04-23T03:11:56.790Z,4.40
2019-04-23T03:12:59.126Z,4.20
2019-04-23T03:14:00.296Z,3.70
2019-04-23T03:14:59.186Z,5.40
2019-04-23T03:16:06.519Z,3.70
2019-04-23T03:18:04.050Z,4.00
2019-04-23T03:19:59.040Z,5.10
2019-04-23T03:21:12.069Z,4.90
2019-04-23T03:23:03.906Z,6.10
2019-04-23T03:24:05.279Z,5.70
2019-04-23T03:25:12.590Z,5.00
2019-04-23T03:26:04.329Z,4.30
2019-04-23T03:27:09.148Z,4.40
2019-04-23T03:27:46.439Z,4.40
2019-04-23T03:29:01.762Z,4.50
2019-04-23T03:35:00.023Z,5.10
2019-04-23T03:37:56.371Z,6.50
2019-04-23T03:41:15.076Z,3.70
2019-04-23T03:41:54.507Z,6.20
2019-04-23T03:43:02.409Z,5.60
2019-04-23T03:44:06.668Z,5.10
2019-04-23T03:45:07.620Z,4.00
2019-04-23T03:46:12.200Z,4.30
2019-04-23T03:46:49.992Z,4.10
2019-04-23T03:48:00.827Z,5.60
2019-04-23T03:50:43.576Z,4.20
2019-04-23T03:52:44.640Z,4.70
2019-04-23T03:54:08.107Z,3.90
2019-04-23T03:56:11.033Z,5.00
2019-04-23T03:57:03.322Z,5.80
2019-04-23T03:57:52.362Z,6.00
2019-04-23T03:59:11.091Z,5.90
2019-04-23T04:00:12.596Z,5.60
2019-04-23T04:00:58.960Z,4.60
2019-04-23T04:02:00.699Z,7.30
2019-04-23T04:04:44.724Z,5.30
2019-04-23T04:06:02.255Z,4.50
2019-04-23T04:08:13.935Z,5.40
2019-04-23T04:11:03.608Z,5.40
2019-04-23T04:11:54.856Z,5.20
2019-04-23T04:12:46.003Z,4.70
2019-04-23T04:14:04.749Z,6.60
2019-04-23T04:14:54.473Z,3.90
2019-04-23T04:18:21.273Z,5.70
2019-04-23T04:18:57.323Z,4.80
2019-04-23T04:19:56.394Z,6.10
2019-04-23T04:21:03.471Z,5.90
2019-04-23T04:21:58.451Z,4.80
2019-04-23T04:24:01.671Z,4.90
2019-04-23T04:24:52.706Z,6.20
2019-04-23T04:27:03.668Z,5.10
2019-04-23T04:28:10.650Z,4.60
2019-04-23T04:29:00.747Z,4.50
2019-04-23T04:30:00.925Z,6.70
2019-04-23T04:30:48.313Z,4.80
2019-04-23T04:31:52.067Z,6.30
2019-04-23T04:33:15.100Z,5.00
2019-04-23T04:34:23.969Z,4.50
2019-04-23T04:35:12.840Z,7.00
2019-04-23T04:36:00.692Z,4.50
2019-04-23T04:37:16.797Z,5.00
2019-04-23T04:38:18.149Z,5.20
2019-04-23T04:38:59.011Z,5.90
2019-04-23T04:41:07.690Z,5.00
2019-04-23T04:44:05.291Z,4.90
2019-04-23T04:46:10.411Z,5.00
2019-04-23T04:46:55.539Z,4.70
2019-04-23T04:47:55.651Z,4.50
2019-04-23T04:48:58.853Z,8.30
2019-04-23T04:50:00.309Z,5.90
2019-04-23T04:51:00.155Z,5.80
2019-04-23T04:52:15.663Z,5.30
2019-04-23T04:52:58.308Z,4.80
2019-04-23T04:54:04.123Z,5.20
2019-04-23T04:54:53.912Z,4.70
2019-04-23T04:55:55.692Z,5.80
2019-04-23T04:56:56.563Z,4.40
2019-04-23T04:58:04.603Z,7.10
2019-04-23T04:58:53.290Z,5.10
2019-04-23T05:01:01.376Z,7.40
2019-04-23T05:02:08.611Z,5.30
2019-04-23T05:03:43.233Z,5.20
2019-04-23T05:06:05.082Z,6.50
2019-04-23T05:07:04.095Z,5.10
2019-04-23T05:07:54.320Z,6.70
2019-04-23T05:08:54.509Z,6.10
2019-04-23T05:13:06.705Z,6.60
2019-04-23T05:13:49.841Z,5.90
2019-04-23T05:14:58.606Z,5.40
2019-04-23T05:15:53.885Z,4.60
2019-04-23T05:16:50.663Z,6.50
2019-04-23T05:18:00.208Z,8.20
2019-04-23T05:18:55.346Z,5.10
2019-04-23T05:20:05.121Z,5.00
2019-04-23T05:20:53.241Z,5.90
2019-04-23T05:23:00.185Z,5.10
2019-04-23T05:24:48.334Z,5.90
2019-04-23T05:25:49.692Z,5.50
2019-04-23T05:26:39.242Z,4.80
2019-04-23T05:27:58.899Z,6.90
2019-04-23T05:29:53.115Z,5.20
2019-04-23T05:30:51.554Z,6.00
2019-04-23T05:31:42.111Z,7.40
2019-04-23T05:32:48.873Z,5.30
2019-04-23T05:33:52.328Z,5.00
2019-04-23T05:34:50.380Z,5.60
2019-04-23T05:36:06.210Z,4.80
2019-04-23T05:36:52.127Z,5.80
2019-04-23T05:37:58.998Z,5.30
2019-04-23T05:39:12.195Z,5.40
2019-04-23T05:39:45.444Z,6.10
2019-04-23T05:41:50.020Z,8.60
2019-04-23T05:42:45.675Z,6.80
2019-04-23T05:43:46.449Z,5.70
2019-04-23T05:44:50.282Z,6.40
2019-04-23T05:45:46.683Z,5.80
2019-04-23T05:46:45.926Z,7.60
2019-04-23T05:47:50.640Z,6.20
2019-04-23T05:48:54.421Z,6.10
2019-04-23T05:53:07.374Z,5.80
2019-04-23T05:53:45.045Z,6.10
2019-04-23T05:54:52.747Z,7.70
2019-04-23T05:55:49.650Z,5.30
2019-04-23T05:56:49.102Z,5.90
2019-04-23T05:57:47.051Z,5.30
2019-04-23T05:58:54.537Z,5.30
2019-04-23T05:59:46.839Z,5.60
2019-04-23T06:01:54.223Z,5.80
2019-04-23T06:03:00.756Z,5.50
2019-04-23T06:03:48.921Z,7.70
2019-04-23T06:05:03.801Z,5.50
2019-04-23T06:07:04.757Z,5.40
2019-04-23T06:07:49.781Z,6.20
2019-04-23T06:08:49.682Z,7.30
2019-04-23T06:09:47.949Z,6.40
2019-04-23T06:10:47.497Z,6.20
2019-04-23T06:12:45.298Z,5.50
2019-04-23T06:13:52.532Z,8.40
2019-04-23T06:14:49.846Z,5.80
2019-04-23T06:15:49.225Z,6.60
2019-04-23T06:17:03.706Z,5.60
2019-04-23T06:17:46.650Z,6.80
2019-04-23T06:19:49.818Z,7.70
2019-04-23T06:20:55.895Z,7.30
2019-04-23T06:22:49.511Z,5.40
2019-04-23T06:24:46.993Z,5.90
2019-04-23T06:26:04.806Z,6.80
2019-04-23T06:27:48.265Z,6.60
2019-04-23T06:28:50.903Z,7.90
2019-04-23T06:29:43.203Z,6.10
2019-04-23T06:30:54.400Z,6.60
2019-04-23T06:31:48.829Z,6.00
2019-04-23T06:32:46.460Z,7.60
2019-04-23T06:33:48.070Z,5.70
2019-04-23T06:34:47.307Z,6.20
2019-04-23T06:35:54.985Z,5.90
2019-04-23T06:36:46.442Z,6.00
2019-04-23T06:38:14.128Z,6.00
2019-04-23T06:38:53.324Z,5.80
2019-04-23T06:40:48.758Z,6.70
2019-04-23T06:41:53.083Z,8.20
2019-04-23T06:42:49.756Z,8.00
2019-04-23T06:43:56.266Z,6.10
2019-04-23T06:44:45.389Z,6.40
2019-04-23T06:45:43.546Z,6.00
2019-04-23T06:46:50.654Z,14.40
2019-04-23T06:47:46.441Z,6.40
2019-04-23T06:48:47.599Z,9.00
2019-04-23T06:50:48.854Z,5.20
2019-04-23T06:51:52.117Z,6.30
2019-04-23T06:52:43.862Z,7.20
2019-04-23T06:53:45.352Z,6.30
2019-04-23T06:54:48.041Z,8.00
2019-04-23T06:55:51.015Z,6.20
2019-04-23T06:56:56.271Z,5.90
2019-04-23T06:57:49.730Z,7.50
2019-04-23T06:58:45.737Z,8.90
2019-04-23T07:00:02.291Z,6.20
2019-04-23T07:00:48.836Z,9.10
2019-04-23T07:01:54.468Z,6.80
2019-04-23T07:02:49.494Z,7.40
2019-04-23T07:03:51.748Z,7.40
2019-04-23T07:04:55.390Z,13.00
2019-04-23T07:05:53.466Z,6.70
2019-04-23T07:06:58.220Z,8.20
2019-04-23T07:09:07.179Z,7.40
2019-04-23T07:09:48.846Z,7.50
2019-04-23T07:10:48.738Z,9.40
2019-04-23T07:11:44.315Z,7.80
2019-04-23T07:12:47.149Z,7.00
2019-04-23T07:13:53.474Z,7.60
2019-04-23T07:14:51.527Z,6.00
2019-04-23T07:15:58.188Z,8.00
2019-04-23T07:16:51.264Z,7.30
2019-04-23T07:17:39.680Z,6.60
2019-04-23T07:18:50.297Z,6.50
2019-04-23T07:20:49.104Z,6.40
2019-04-23T07:21:42.007Z,7.40
2019-04-23T07:22:53.769Z,6.60
2019-04-23T07:23:54.700Z,7.20
2019-04-23T07:24:49.213Z,7.50
2019-04-23T07:25:46.790Z,8.80
2019-04-23T07:26:55.421Z,7.00
2019-04-23T07:27:40.922Z,5.90
2019-04-23T07:28:49.741Z,6.80
2019-04-23T07:29:47.043Z,6.70
2019-04-23T07:30:52.440Z,7.40
2019-04-23T07:31:50.102Z,7.90
2019-04-23T07:33:52.829Z,8.00
2019-04-23T07:34:49.411Z,6.50
2019-04-23T07:35:47.657Z,7.70
2019-04-23T07:36:59.063Z,7.20
2019-04-23T07:37:51.719Z,7.30
2019-04-23T07:38:54.940Z,6.20
2019-04-23T07:39:57.023Z,6.80
2019-04-23T07:41:07.733Z,6.20
2019-04-23T07:42:55.117Z,7.50
2019-04-23T07:43:48.934Z,7.30
2019-04-23T07:44:50.039Z,9.20
2019-04-23T07:45:57.371Z,10.30
2019-04-23T07:46:53.111Z,8.60
2019-04-23T07:47:54.101Z,6.20
2019-04-23T07:48:43.972Z,6.40
2019-04-23T07:49:49.121Z,6.50
2019-04-23T07:51:46.927Z,7.30
2019-04-23T07:52:50.696Z,6.30
2019-04-23T07:55:51.721Z,7.90
2019-04-23T07:56:55.358Z,7.60
2019-04-23T07:57:53.594Z,6.60
2019-04-23T07:58:42.335Z,6.80
2019-04-23T07:59:51.605Z,7.80
2019-04-23T08:00:58.212Z,5.90
2019-04-23T08:01:53.296Z,7.30
2019-04-23T08:02:43.471Z,5.90
2019-04-23T08:03:48.290Z,8.70
2019-04-23T08:04:54.386Z,6.00
2019-04-23T08:05:44.090Z,7.60
2019-04-23T08:06:47.690Z,7.40
2019-04-23T08:07:54.156Z,6.90
2019-04-23T08:09:47.933Z,8.80
2019-04-23T08:11:10.580Z,8.90
2019-04-23T08:12:03.005Z,7.70
2019-04-23T08:12:46.893Z,10.10
2019-04-23T08:15:01.625Z,7.00
2019-04-23T08:15:48.352Z,6.90
2019-04-23T08:16:38.301Z,7.70
2019-04-23T08:17:43.372Z,7.30
2019-04-23T08:18:49.502Z,6.70
2019-04-23T08:19:59.387Z,7.80
2019-04-23T08:20:49.644Z,10.50
2019-04-23T08:21:43.947Z,10.30
2019-04-23T08:22:46.850Z,7.40
2019-04-23T08:23:48.718Z,6.30
2019-04-23T08:25:00.406Z,7.90
2019-04-23T08:25:52.457Z,7.00
2019-04-23T08:26:50.230Z,6.30
2019-04-23T08:27:41.598Z,7.70
2019-04-23T08:29:05.487Z,9.30
2019-04-23T08:29:37.561Z,5.80
2019-04-23T08:30:45.398Z,7.20
2019-04-23T08:32:51.208Z,9.90
2019-04-23T08:33:49.915Z,6.00
2019-04-23T08:35:50.942Z,7.40
2019-04-23T08:36:50.161Z,6.60
2019-04-23T08:38:02.759Z,9.90
2019-04-23T08:38:44.660Z,7.20
2019-04-23T08:39:45.513Z,6.10
2019-04-23T08:40:55.606Z,6.80
2019-04-23T08:41:57.140Z,7.60
2019-04-23T08:43:12.890Z,8.90
2019-04-23T08:43:47.825Z,7.40
2019-04-23T08:44:56.387Z,7.80
2019-04-23T08:45:51.361Z,7.00
2019-04-23T08:46:57.482Z,8.50
2019-04-23T08:47:40.221Z,10.50
2019-04-23T08:48:55.866Z,6.50
2019-04-23T08:50:44.413Z,8.50
2019-04-23T08:51:56.008Z,6.40
2019-04-23T08:52:47.192Z,6.30
2019-04-23T08:53:40.899Z,5.00
2019-04-23T08:54:52.324Z,5.80
2019-04-23T08:55:50.159Z,7.50
2019-04-23T08:56:48.744Z,6.30
2019-04-23T08:57:43.081Z,6.10
2019-04-23T08:58:41.579Z,5.90
2019-04-23T09:00:02.855Z,6.20
2019-04-23T09:00:59.153Z,5.90
2019-04-23T09:01:57.479Z,7.90
2019-04-23T09:03:44.887Z,7.10
2019-04-23T09:04:56.824Z,6.30
2019-04-23T09:06:45.304Z,5.60
2019-04-23T09:07:55.274Z,6.00
2019-04-23T09:08:48.054Z,7.60
2019-04-23T09:09:53.747Z,5.30
2019-04-23T09:10:55.970Z,8.80
2019-04-23T09:12:56.016Z,5.30
2019-04-23T09:13:53.334Z,5.70
2019-04-23T09:14:44.752Z,6.00
2019-04-23T09:17:47.630Z,7.40
2019-04-23T09:18:48.848Z,7.70
2019-04-23T09:20:39.363Z,7.20
2019-04-23T09:21:56.448Z,6.30
2019-04-23T09:22:45.226Z,6.80
2019-04-23T09:23:46.659Z,7.90
2019-04-23T09:24:47.106Z,6.00
2019-04-23T09:25:47.742Z,4.90
2019-04-23T09:26:38.029Z,6.40
2019-04-23T09:27:50.569Z,7.50
2019-04-23T09:29:01.956Z,7.40
2019-04-23T09:29:58.232Z,7.30
2019-04-23T09:30:49.356Z,8.00
2019-04-23T09:32:07.458Z,6.10
2019-04-23T09:32:52.044Z,7.50
2019-04-23T09:34:52.740Z,7.60
2019-04-23T09:35:48.439Z,9.00
2019-04-23T09:36:51.540Z,6.40
2019-04-23T09:37:49.318Z,5.90
2019-04-23T09:38:46.866Z,5.40
2019-04-23T09:39:51.177Z,5.50
2019-04-23T09:40:54.889Z,7.30
2019-04-23T09:41:39.833Z,7.10
2019-04-23T09:42:54.511Z,5.70
2019-04-23T09:43:47.334Z,5.30
2019-04-23T09:45:48.771Z,5.20
2019-04-23T09:46:48.331Z,8.40
2019-04-23T09:47:50.723Z,6.90
2019-04-23T09:48:53.597Z,6.70
2019-04-23T09:49:50.168Z,7.10
2019-04-23T09:50:52.334Z,6.80
2019-04-23T09:51:47.204Z,5.80
2019-04-23T09:52:57.637Z,7.70
2019-04-23T09:53:45.741Z,6.30
2019-04-23T09:54:48.836Z,8.40
2019-04-23T09:57:50.263Z,5.40
2019-04-23T09:58:42.046Z,5.50
2019-04-23T09:59:49.034Z,5.60
2019-04-23T10:00:43.296Z,6.00
2019-04-23T10:01:36.325Z,5.80
2019-04-23T10:02:34.299Z,5.60
2019-04-23T10:03:34.187Z,6.50
2019-04-23T10:04:31.970Z,6.50
2019-04-23T10:05:28.749Z,8.20
2019-04-23T10:06:23.326Z,4.60
2019-04-23T10:07:30.362Z,5.10
2019-04-23T10:08:26.822Z,6.50
2019-04-23T10:09:18.796Z,6.90
2019-04-23T10:10:18.454Z,6.20
2019-04-23T10:11:19.573Z,6.30
2019-04-23T10:12:17.730Z,7.80
2019-04-23T10:13:17.978Z,6.00
2019-04-23T10:14:16.806Z,8.70
2019-04-23T10:15:22.819Z,9.70
2019-04-23T10:16:20.996Z,8.20
2019-04-23T10:17:18.075Z,7.40
2019-04-23T10:18:18.200Z,5.10
2019-04-23T10:19:17.143Z,6.80
2019-04-23T10:20:16.661Z,8.30
2019-04-23T10:21:17.487Z,7.20
2019-04-23T10:22:17.404Z,7.50
2019-04-23T10:23:16.657Z,6.70
2019-04-23T10:24:16.987Z,6.60
2019-04-23T10:25:17.153Z,5.50
2019-04-23T10:26:16.602Z,5.60
2019-04-23T10:27:17.038Z,9.20
2019-04-23T10:28:18.454Z,5.30
2019-04-23T10:29:18.052Z,6.80
2019-04-23T10:30:17.733Z,5.70
2019-04-23T10:31:16.775Z,10.50
2019-04-23T10:32:17.699Z,6.10
2019-04-23T10:33:16.516Z,6.70
2019-04-23T10:34:17.006Z,7.10
2019-04-23T10:35:25.665Z,5.90
2019-04-23T10:36:21.554Z,6.00
2019-04-23T10:37:30.468Z,5.30
2019-04-23T10:38:20.002Z,5.40
2019-04-23T10:39:22.075Z,5.90
2019-04-23T10:40:25.505Z,6.40
2019-04-23T10:41:18.245Z,5.00
2019-04-23T10:42:16.442Z,6.60
2019-04-23T10:43:17.139Z,5.70
2019-04-23T10:44:17.227Z,7.40
2019-04-23T10:45:30.385Z,6.10
2019-04-23T10:46:36.461Z,6.60
2019-04-23T10:47:45.006Z,8.30
2019-04-23T10:49:11.080Z,6.50
2019-04-23T10:50:32.486Z,8.40
2019-04-23T10:50:49.635Z,4.90
2019-04-23T10:52:53.788Z,6.00
2019-04-23T10:54:13.864Z,5.80
2019-04-23T10:54:45.217Z,6.70
2019-04-23T10:56:44.970Z,7.30
2019-04-23T10:57:39.421Z,6.60
2019-04-23T10:58:38.428Z,5.60
2019-04-23T10:59:43.121Z,5.10
2019-04-23T11:00:44.956Z,5.30
2019-04-23T11:02:03.869Z,5.70
2019-04-23T11:02:47.563Z,7.30
2019-04-23T11:03:58.857Z,6.60
2019-04-23T11:05:53.828Z,9.20
2019-04-23T11:06:45.081Z,7.60
2019-04-23T11:07:36.844Z,7.20
2019-04-23T11:08:42.427Z,6.50
2019-04-23T11:10:46.545Z,7.30
2019-04-23T11:11:48.330Z,5.90
2019-04-23T11:12:48.930Z,4.70
2019-04-23T11:13:45.268Z,9.40
2019-04-23T11:14:52.736Z,5.10
2019-04-23T11:16:25.078Z,5.70
2019-04-23T11:18:58.302Z,6.30
2019-04-23T11:19:52.467Z,6.20
2019-04-23T11:22:46.514Z,7.90
2019-04-23T11:23:59.848Z,6.60
2019-04-23T11:25:57.720Z,5.50
2019-04-23T11:29:50.469Z,7.20
2019-04-23T11:30:41.525Z,6.40
2019-04-23T11:31:58.231Z,6.40
2019-04-23T11:32:56.444Z,6.60
2019-04-23T11:35:06.819Z,7.80
2019-04-23T11:36:54.300Z,16.10
2019-04-23T11:38:06.635Z,7.30
2019-04-23T11:38:16.004Z,6.00
2019-04-23T11:39:45.799Z,8.30
2019-04-23T11:40:40.377Z,5.50
2019-04-23T11:41:51.901Z,6.60
2019-04-23T11:42:50.204Z,6.00
2019-04-23T11:44:03.968Z,7.60
2019-04-23T11:44:52.177Z,7.00
2019-04-23T11:49:53.283Z,5.90
2019-04-23T11:51:20.463Z,7.40
2019-04-23T11:51:57.329Z,15.00
2019-04-23T11:52:48.816Z,8.90
2019-04-23T11:53:51.054Z,6.40
2019-04-23T11:54:43.516Z,7.50
2019-04-23T11:59:47.172Z,8.90
2019-04-23T12:00:59.561Z,9.30
2019-04-23T12:01:52.659Z,13.10
2019-04-23T12:03:58.659Z,6.80
2019-04-23T12:04:55.866Z,5.80
2019-04-23T12:06:45.932Z,6.30
2019-04-23T12:07:39.858Z,8.50
2019-04-23T12:08:47.413Z,6.40
2019-04-23T12:09:46.571Z,7.00
2019-04-23T12:11:11.821Z,7.30
2019-04-23T12:12:04.126Z,7.70
2019-04-23T12:12:40.074Z,7.50
2019-04-23T12:14:03.640Z,8.40
2019-04-23T12:15:13.462Z,7.40
2019-04-23T12:15:46.133Z,6.90
2019-04-23T12:16:57.309Z,6.10
2019-04-23T12:17:49.053Z,8.50
2019-04-23T12:18:59.527Z,11.30
2019-04-23T12:19:55.667Z,9.30
2019-04-23T12:21:54.748Z,8.80
2019-04-23T12:22:51.275Z,6.40
2019-04-23T12:24:05.115Z,6.40
2019-04-23T12:25:03.603Z,5.50
2019-04-23T12:26:03.164Z,7.50
2019-04-23T12:26:56.295Z,7.10
2019-04-23T12:27:38.602Z,8.00
2019-04-23T12:28:43.890Z,8.20
2019-04-23T12:29:50.743Z,8.90
2019-04-23T12:30:45.133Z,8.60
2019-04-23T12:31:47.620Z,8.00
2019-04-23T12:32:54.562Z,6.70
2019-04-23T12:34:53.038Z,8.00
2019-04-23T12:35:39.295Z,6.50
2019-04-23T12:38:45.318Z,8.20
2019-04-23T12:39:49.501Z,8.00
2019-04-23T12:40:40.563Z,7.40
2019-04-23T12:41:47.854Z,6.10
2019-04-23T12:42:59.065Z,5.70
2019-04-23T12:43:40.444Z,6.80
2019-04-23T12:44:45.818Z,6.80
2019-04-23T12:45:50.482Z,8.60
2019-04-23T12:46:51.293Z,7.00
2019-04-23T12:48:50.947Z,8.40
2019-04-23T12:50:50.057Z,7.50
2019-04-23T12:51:46.885Z,5.90
2019-04-23T12:52:49.056Z,9.20
2019-04-23T12:53:57.943Z,9.40
2019-04-23T12:56:59.002Z,7.90
2019-04-23T12:57:47.358Z,11.30
2019-04-23T12:58:32.344Z,7.70
2019-04-23T12:59:44.820Z,7.00
2019-04-23T13:00:51.398Z,7.60
2019-04-23T13:01:49.799Z,8.00
2019-04-23T13:02:44.201Z,7.80
2019-04-23T13:03:39.222Z,6.60
2019-04-23T13:04:48.880Z,10.60
2019-04-23T13:05:32.682Z,8.70
2019-04-23T13:06:44.076Z,8.90
2019-04-23T13:08:44.241Z,10.80
2019-04-23T13:09:53.981Z,11.50
2019-04-23T13:10:43.936Z,14.20
2019-04-23T13:11:45.068Z,9.10
2019-04-23T13:13:48.290Z,9.50
2019-04-23T13:14:51.093Z,12.70
2019-04-23T13:15:40.612Z,10.00
2019-04-23T13:16:53.899Z,10.90
2019-04-23T13:18:48.423Z,8.60
2019-04-23T13:19:51.419Z,12.10
2019-04-23T13:21:57.095Z,9.30
2019-04-23T13:22:49.183Z,8.40
2019-04-23T13:23:41.050Z,9.40
2019-04-23T13:24:48.730Z,11.60
2019-04-23T13:25:47.351Z,11.50
2019-04-23T13:26:35.621Z,13.20
2019-04-23T13:29:51.477Z,8.90
2019-04-23T13:30:49.967Z,9.50
2019-04-23T13:31:40.284Z,11.00
2019-04-23T13:32:50.294Z,8.80
2019-04-23T13:34:04.234Z,10.80
2019-04-23T13:34:51.061Z,9.00
2019-04-23T13:35:53.248Z,10.80
2019-04-23T13:36:45.496Z,11.40
2019-04-23T13:38:40.489Z,10.90
2019-04-23T13:39:43.927Z,8.20
2019-04-23T13:40:46.484Z,8.30
2019-04-23T13:41:42.077Z,8.40
2019-04-23T13:42:45.140Z,10.00
2019-04-23T13:44:47.030Z,6.30
2019-04-23T13:45:59.369Z,9.00
2019-04-23T13:46:39.718Z,7.10
2019-04-23T13:48:35.994Z,12.20
2019-04-23T13:49:51.183Z,8.10
2019-04-23T13:50:49.619Z,12.70
2019-04-23T13:51:39.688Z,10.00
2019-04-23T13:53:50.375Z,11.50
2019-04-23T13:55:00.237Z,8.70
2019-04-23T13:55:42.903Z,9.60
2019-04-23T13:57:12.816Z,10.30
2019-04-23T13:58:03.000Z,11.50
2019-04-23T13:58:43.386Z,8.40
2019-04-23T13:59:44.604Z,8.90
2019-04-23T14:01:41.127Z,9.90
2019-04-23T14:02:42.423Z,8.10
2019-04-23T14:03:53.954Z,10.60
2019-04-23T14:04:54.365Z,9.10
2019-04-23T14:05:41.203Z,10.90
2019-04-23T14:06:41.936Z,6.40
2019-04-23T14:07:50.051Z,11.90
2019-04-23T14:10:44.830Z,6.60
2019-04-23T14:11:54.213Z,8.70
2019-04-23T14:12:53.409Z,9.10
2019-04-23T14:13:52.041Z,7.80
2019-04-23T14:14:50.096Z,11.00
2019-04-23T14:18:02.872Z,8.20
2019-04-23T14:19:47.737Z,9.90
2019-04-23T14:20:40.409Z,7.80
2019-04-23T14:21:40.590Z,7.00
2019-04-23T14:24:59.353Z,8.20
2019-04-23T14:26:00.331Z,10.30
2019-04-23T14:26:38.248Z,9.00
2019-04-23T14:27:49.493Z,7.20
2019-04-23T14:28:44.665Z,12.60
2019-04-23T14:29:50.448Z,10.00
2019-04-23T14:30:53.825Z,10.60
2019-04-23T14:31:43.221Z,9.90
2019-04-23T14:32:45.449Z,7.80
2019-04-23T14:33:53.969Z,8.20
2019-04-23T14:34:57.823Z,9.50
2019-04-23T14:36:42.457Z,7.30
2019-04-23T14:37:53.139Z,9.90
2019-04-23T14:38:43.948Z,9.00
2019-04-23T14:41:44.439Z,9.70
2019-04-23T14:43:48.736Z,12.00
2019-04-23T14:44:46.811Z,7.60
2019-04-23T14:46:18.805Z,6.50
2019-04-23T14:48:05.876Z,10.30
2019-04-23T14:48:49.643Z,8.60
2019-04-23T14:50:44.258Z,9.20
2019-04-23T14:52:50.657Z,9.90
2019-04-23T14:53:52.173Z,9.20
2019-04-23T14:55:19.232Z,12.60
2019-04-23T14:56:44.816Z,9.40
2019-04-23T14:57:55.536Z,10.50
2019-04-23T14:58:51.305Z,7.70
2019-04-23T14:59:48.107Z,8.00
2019-04-23T15:01:03.118Z,10.90
2019-04-23T15:01:42.870Z,13.20
2019-04-23T15:02:55.727Z,8.20
2019-04-23T15:05:56.401Z,9.20
2019-04-23T15:07:46.925Z,9.30
2019-04-23T15:08:53.100Z,13.20
2019-04-23T15:09:43.832Z,9.00
2019-04-23T15:10:58.234Z,8.20
2019-04-23T15:11:57.687Z,14.80
2019-04-23T15:12:47.845Z,11.90
2019-04-23T15:13:44.869Z,12.10
2019-04-23T15:14:52.953Z,8.10
2019-04-23T15:15:44.477Z,12.80
2019-04-23T15:16:49.862Z,12.90
2019-04-23T15:17:40.602Z,10.60
2019-04-23T15:19:00.644Z,12.80
2019-04-23T15:19:55.443Z,9.20
2019-04-23T15:20:47.359Z,9.10
2019-04-23T15:22:51.126Z,9.40
2019-04-23T15:23:51.501Z,8.80
2019-04-23T15:28:06.113Z,11.00
2019-04-23T15:28:18.563Z,7.90
2019-04-23T15:29:31.113Z,9.20
2019-04-23T15:30:48.283Z,9.50
2019-04-23T15:33:54.398Z,8.60
2019-04-23T15:34:45.406Z,13.50
2019-04-23T15:35:53.347Z,9.70
2019-04-23T15:38:02.191Z,8.60
2019-04-23T15:39:46.552Z,8.30
2019-04-23T15:40:43.672Z,8.50
2019-04-23T15:41:52.312Z,7.80
2019-04-23T15:42:53.817Z,9.80
2019-04-23T15:43:53.131Z,8.90
2019-04-23T15:44:46.537Z,10.40
2019-04-23T15:45:44.470Z,7.90
2019-04-23T15:48:42.689Z,7.00
2019-04-23T15:49:43.975Z,10.60
2019-04-23T15:50:48.687Z,7.40
2019-04-23T15:52:00.365Z,8.20
2019-04-23T15:53:44.619Z,12.10
2019-04-23T15:54:43.343Z,9.20
2019-04-23T15:55:49.289Z,7.20
2019-04-23T15:58:58.320Z,10.20
2019-04-23T15:59:52.016Z,10.00
2019-04-23T16:00:39.835Z,8.00
2019-04-23T16:01:37.524Z,8.00
2019-04-23T16:02:13.950Z,9.70
2019-04-23T16:03:14.917Z,8.00
2019-04-23T16:04:15.348Z,9.10
2019-04-23T16:05:15.139Z,8.90
2019-04-23T16:06:16.562Z,9.70
2019-04-23T16:07:31.806Z,10.90
2019-04-23T16:08:55.507Z,10.60
2019-04-23T16:09:36.226Z,11.60
2019-04-23T16:10:47.324Z,11.40
2019-04-23T16:12:45.058Z,10.60
2019-04-23T16:13:55.599Z,7.80
2019-04-23T16:14:48.014Z,8.20
2019-04-23T16:15:45.435Z,7.80
2019-04-23T16:16:45.463Z,13.50
2019-04-23T16:17:41.336Z,8.90
2019-04-23T16:18:42.266Z,9.60
2019-04-23T16:19:48.599Z,7.70
2019-04-23T16:20:46.660Z,10.40
2019-04-23T16:21:54.723Z,9.40
2019-04-23T16:23:42.278Z,11.10
2019-04-23T16:24:39.813Z,9.80
2019-04-23T16:25:36.215Z,9.00
2019-04-23T16:26:51.006Z,10.10
2019-04-23T16:27:44.370Z,9.70